sensor_id;sensor_type;location;lat;lon;timestamp;pressure;altitude;pressure_sealevel;temperature;humidity
60874;BME280;46715;40.642;-7.920;2023-05-22T00:01:37;95806.97;;;14.62;62.67
60874;BME280;46715;40.642;-7.920;2023-05-22T00:03:38;95798.22;;;14.66;62.57
60874;BME280;46715;40.642;-7.920;2023-05-22T00:05:40;95790.34;;;14.66;62.68
60874;BME280;46715;40.642;-7.920;2023-05-22T00:07:40;95800.22;;;14.70;62.37
60874;BME280;46715;40.642;-7.920;2023-05-22T00:09:43;95794.34;;;14.64;62.61
60874;BME280;46715;40.642;-7.920;2023-05-22T00:11:44;95795.06;;;14.56;63.01
60874;BME280;46715;40.642;-7.920;2023-05-22T00:13:44;95797.66;;;14.47;63.42
60874;BME280;46715;40.642;-7.920;2023-05-22T00:15:47;95802.09;;;14.38;63.48
60874;BME280;46715;40.642;-7.920;2023-05-22T00:17:49;95797.72;;;14.24;63.56
60874;BME280;46715;40.642;-7.920;2023-05-22T00:19:49;95806.03;;;14.18;64.04
60874;BME280;46715;40.642;-7.920;2023-05-22T00:21:51;95804.00;;;14.14;64.21
60874;BME280;46715;40.642;-7.920;2023-05-22T00:23:51;95808.56;;;14.09;64.63
60874;BME280;46715;40.642;-7.920;2023-05-22T00:25:52;95807.78;;;14.00;64.98
60874;BME280;46715;40.642;-7.920;2023-05-22T00:27:53;95806.34;;;13.93;65.27
60874;BME280;46715;40.642;-7.920;2023-05-22T00:29:55;95806.94;;;13.90;65.78
60874;BME280;46715;40.642;-7.920;2023-05-22T00:31:56;95812.13;;;13.81;66.03
60874;BME280;46715;40.642;-7.920;2023-05-22T00:33:58;95812.53;;;13.75;66.15
60874;BME280;46715;40.642;-7.920;2023-05-22T00:35:59;95803.91;;;13.74;66.60
60874;BME280;46715;40.642;-7.920;2023-05-22T00:38:02;95808.72;;;13.81;66.46
60874;BME280;46715;40.642;-7.920;2023-05-22T00:40:07;95800.59;;;13.83;66.63
60874;BME280;46715;40.642;-7.920;2023-05-22T00:42:08;95804.44;;;13.85;66.48
60874;BME280;46715;40.642;-7.920;2023-05-22T00:44:09;95801.66;;;13.81;66.23
60874;BME280;46715;40.642;-7.920;2023-05-22T00:46:11;95800.19;;;13.75;66.48
60874;BME280;46715;40.642;-7.920;2023-05-22T00:48:12;95797.22;;;13.68;66.65
60874;BME280;46715;40.642;-7.920;2023-05-22T00:50:13;95800.16;;;13.67;66.93
60874;BME280;46715;40.642;-7.920;2023-05-22T00:52:14;95792.59;;;13.65;67.15
60874;BME280;46715;40.642;-7.920;2023-05-22T00:54:17;95792.59;;;13.65;67.08
60874;BME280;46715;40.642;-7.920;2023-05-22T00:56:18;95791.63;;;13.61;67.46
60874;BME280;46715;40.642;-7.920;2023-05-22T00:58:19;95795.72;;;13.53;67.06
60874;BME280;46715;40.642;-7.920;2023-05-22T01:00:21;95805.25;;;13.49;67.44
60874;BME280;46715;40.642;-7.920;2023-05-22T01:02:23;95807.88;;;13.49;67.81
60874;BME280;46715;40.642;-7.920;2023-05-22T01:04:24;95805.56;;;13.47;67.88
60874;BME280;46715;40.642;-7.920;2023-05-22T01:06:26;95807.09;;;13.49;67.97
60874;BME280;46715;40.642;-7.920;2023-05-22T01:08:27;95797.00;;;13.56;67.69
60874;BME280;46715;40.642;-7.920;2023-05-22T01:10:29;95801.28;;;13.74;67.92
60874;BME280;46715;40.642;-7.920;2023-05-22T01:17:18;95802.22;;;13.56;67.08
60874;BME280;46715;40.642;-7.920;2023-05-22T01:21:50;95795.38;;;13.46;67.22
60874;BME280;46715;40.642;-7.920;2023-05-22T01:31:04;95792.00;;;13.45;68.19
60874;BME280;46715;40.642;-7.920;2023-05-22T01:33:13;95806.69;;;13.55;67.61
60874;BME280;46715;40.642;-7.920;2023-05-22T01:35:16;95796.81;;;13.52;67.59
60874;BME280;46715;40.642;-7.920;2023-05-22T01:37:19;95794.97;;;13.53;67.52
60874;BME280;46715;40.642;-7.920;2023-05-22T01:39:23;95791.28;;;13.54;67.65
60874;BME280;46715;40.642;-7.920;2023-05-22T01:41:28;95796.81;;;13.52;67.64
60874;BME280;46715;40.642;-7.920;2023-05-22T01:43:28;95790.97;;;13.55;67.79
60874;BME280;46715;40.642;-7.920;2023-05-22T01:45:29;95787.22;;;13.47;67.30
60874;BME280;46715;40.642;-7.920;2023-05-22T01:47:32;95793.06;;;13.44;67.89
60874;BME280;46715;40.642;-7.920;2023-05-22T01:49:33;95792.41;;;13.39;67.85
60874;BME280;46715;40.642;-7.920;2023-05-22T01:51:46;95794.41;;;13.42;67.73
60874;BME280;46715;40.642;-7.920;2023-05-22T01:54:00;95801.56;;;13.50;67.35
60874;BME280;46715;40.642;-7.920;2023-05-22T01:56:09;95811.28;;;13.50;67.08
60874;BME280;46715;40.642;-7.920;2023-05-22T02:00:31;95802.16;;;13.47;67.43
60874;BME280;46715;40.642;-7.920;2023-05-22T02:02:34;95798.19;;;13.50;67.09
60874;BME280;46715;40.642;-7.920;2023-05-22T02:04:38;95798.59;;;13.66;66.45
60874;BME280;46715;40.642;-7.920;2023-05-22T02:06:41;95789.19;;;13.87;65.48
60874;BME280;46715;40.642;-7.920;2023-05-22T02:08:43;95797.84;;;14.19;63.78
60874;BME280;46715;40.642;-7.920;2023-05-22T02:10:45;95798.94;;;14.27;63.09
60874;BME280;46715;40.642;-7.920;2023-05-22T02:12:47;95793.88;;;14.30;63.23
60874;BME280;46715;40.642;-7.920;2023-05-22T02:14:48;95794.81;;;14.26;63.64
60874;BME280;46715;40.642;-7.920;2023-05-22T02:16:49;95795.22;;;14.19;64.00
60874;BME280;46715;40.642;-7.920;2023-05-22T02:18:58;95798.88;;;14.09;64.68
60874;BME280;46715;40.642;-7.920;2023-05-22T02:21:02;95799.13;;;13.99;64.78
60874;BME280;46715;40.642;-7.920;2023-05-22T02:23:08;95786.16;;;13.94;65.11
60874;BME280;46715;40.642;-7.920;2023-05-22T02:25:12;95796.34;;;13.95;64.63
60874;BME280;46715;40.642;-7.920;2023-05-22T02:27:15;95790.09;;;13.83;65.02
60874;BME280;46715;40.642;-7.920;2023-05-22T02:29:16;95789.72;;;13.75;65.15
60874;BME280;46715;40.642;-7.920;2023-05-22T02:31:18;95794.97;;;13.75;65.23
60874;BME280;46715;40.642;-7.920;2023-05-22T02:33:19;95796.06;;;13.74;65.71
60874;BME280;46715;40.642;-7.920;2023-05-22T02:35:23;95794.31;;;13.70;65.55
60874;BME280;46715;40.642;-7.920;2023-05-22T02:37:25;95801.50;;;13.64;65.34
60874;BME280;46715;40.642;-7.920;2023-05-22T02:39:26;95796.69;;;13.57;65.26
60874;BME280;46715;40.642;-7.920;2023-05-22T02:41:28;95798.94;;;13.50;65.88
60874;BME280;46715;40.642;-7.920;2023-05-22T02:43:29;95794.91;;;13.44;66.23
60874;BME280;46715;40.642;-7.920;2023-05-22T02:45:31;95797.34;;;13.40;66.20
60874;BME280;46715;40.642;-7.920;2023-05-22T02:47:31;95804.50;;;13.35;66.26
60874;BME280;46715;40.642;-7.920;2023-05-22T02:49:34;95802.19;;;13.33;66.28
60874;BME280;46715;40.642;-7.920;2023-05-22T02:51:35;95799.56;;;13.33;66.55
60874;BME280;46715;40.642;-7.920;2023-05-22T02:53:36;95794.13;;;13.29;66.31
60874;BME280;46715;40.642;-7.920;2023-05-22T02:55:40;95800.31;;;13.34;66.33
60874;BME280;46715;40.642;-7.920;2023-05-22T02:57:41;95800.91;;;13.44;65.95
60874;BME280;46715;40.642;-7.920;2023-05-22T02:59:42;95803.81;;;13.43;66.10
60874;BME280;46715;40.642;-7.920;2023-05-22T03:01:43;95797.81;;;13.42;65.93
60874;BME280;46715;40.642;-7.920;2023-05-22T03:03:45;95793.53;;;13.46;65.93
60874;BME280;46715;40.642;-7.920;2023-05-22T03:05:47;95802.81;;;13.53;65.50
60874;BME280;46715;40.642;-7.920;2023-05-22T03:07:49;95802.22;;;13.56;64.94
60874;BME280;46715;40.642;-7.920;2023-05-22T03:09:51;95798.25;;;13.58;64.87
60874;BME280;46715;40.642;-7.920;2023-05-22T03:11:52;95796.88;;;13.61;64.58
60874;BME280;46715;40.642;-7.920;2023-05-22T03:13:53;95788.31;;;13.69;63.93
60874;BME280;46715;40.642;-7.920;2023-05-22T03:15:54;95787.91;;;13.76;63.75
60874;BME280;46715;40.642;-7.920;2023-05-22T03:17:56;95792.72;;;13.83;63.21
60874;BME280;46715;40.642;-7.920;2023-05-22T03:19:58;95796.56;;;13.85;62.83
60874;BME280;46715;40.642;-7.920;2023-05-22T03:21:59;95793.72;;;13.95;62.39
60874;BME280;46715;40.642;-7.920;2023-05-22T03:24:01;95797.28;;;14.00;62.05
60874;BME280;46715;40.642;-7.920;2023-05-22T03:26:01;95788.81;;;14.03;61.86
60874;BME280;46715;40.642;-7.920;2023-05-22T03:28:08;95792.56;;;14.10;61.45
60874;BME280;46715;40.642;-7.920;2023-05-22T03:30:12;95790.09;;;14.14;61.04
60874;BME280;46715;40.642;-7.920;2023-05-22T03:32:16;95793.03;;;14.12;61.16
60874;BME280;46715;40.642;-7.920;2023-05-22T03:34:18;95802.44;;;14.13;60.74
60874;BME280;46715;40.642;-7.920;2023-05-22T03:36:21;95786.53;;;14.10;61.02
60874;BME280;46715;40.642;-7.920;2023-05-22T03:38:23;95784.22;;;14.08;61.04
60874;BME280;46715;40.642;-7.920;2023-05-22T03:40:24;95791.31;;;14.08;60.95
60874;BME280;46715;40.642;-7.920;2023-05-22T03:42:24;95794.75;;;14.17;60.66
60874;BME280;46715;40.642;-7.920;2023-05-22T03:44:25;95796.59;;;14.17;60.91
60874;BME280;46715;40.642;-7.920;2023-05-22T03:46:27;95790.41;;;14.12;60.84
60874;BME280;46715;40.642;-7.920;2023-05-22T03:48:28;95797.22;;;14.13;60.74
60874;BME280;46715;40.642;-7.920;2023-05-22T03:50:28;95790.91;;;14.14;60.30
60874;BME280;46715;40.642;-7.920;2023-05-22T03:52:29;95793.84;;;14.22;60.44
60874;BME280;46715;40.642;-7.920;2023-05-22T03:54:30;95803.25;;;14.23;60.31
60874;BME280;46715;40.642;-7.920;2023-05-22T03:56:31;95798.31;;;14.21;60.23
60874;BME280;46715;40.642;-7.920;2023-05-22T03:58:32;95798.78;;;14.23;59.91
60874;BME280;46715;40.642;-7.920;2023-05-22T04:00:33;95796.31;;;14.27;60.10
60874;BME280;46715;40.642;-7.920;2023-05-22T04:02:35;95801.28;;;14.28;60.06
60874;BME280;46715;40.642;-7.920;2023-05-22T04:04:39;95803.31;;;14.31;59.88
60874;BME280;46715;40.642;-7.920;2023-05-22T04:06:40;95795.91;;;14.33;59.89
60874;BME280;46715;40.642;-7.920;2023-05-22T04:08:47;95793.47;;;14.37;59.36
60874;BME280;46715;40.642;-7.920;2023-05-22T04:10:48;95799.66;;;14.41;59.21
60874;BME280;46715;40.642;-7.920;2023-05-22T04:12:49;95798.13;;;14.49;58.92
60874;BME280;46715;40.642;-7.920;2023-05-22T04:14:50;95798.59;;;14.51;59.00
60874;BME280;46715;40.642;-7.920;2023-05-22T04:16:51;95799.53;;;14.55;58.91
60874;BME280;46715;40.642;-7.920;2023-05-22T04:18:51;95800.50;;;14.59;58.68
60874;BME280;46715;40.642;-7.920;2023-05-22T04:20:52;95801.31;;;14.69;58.30
60874;BME280;46715;40.642;-7.920;2023-05-22T04:22:53;95801.16;;;14.74;58.22
60874;BME280;46715;40.642;-7.920;2023-05-22T04:24:53;95807.66;;;14.76;58.04
60874;BME280;46715;40.642;-7.920;2023-05-22T04:26:54;95803.03;;;14.82;57.81
60874;BME280;46715;40.642;-7.920;2023-05-22T04:28:55;95797.34;;;14.80;57.92
60874;BME280;46715;40.642;-7.920;2023-05-22T04:30:56;95806.47;;;14.82;57.92
60874;BME280;46715;40.642;-7.920;2023-05-22T04:32:59;95808.47;;;14.86;57.96
60874;BME280;46715;40.642;-7.920;2023-05-22T04:35:00;95810.78;;;14.87;57.98
60874;BME280;46715;40.642;-7.920;2023-05-22T04:37:01;95807.09;;;14.88;58.15
60874;BME280;46715;40.642;-7.920;2023-05-22T04:39:03;95802.91;;;14.96;58.00
60874;BME280;46715;40.642;-7.920;2023-05-22T04:41:04;95812.50;;;15.00;58.06
60874;BME280;46715;40.642;-7.920;2023-05-22T04:43:09;95820.84;;;15.03;57.96
60874;BME280;46715;40.642;-7.920;2023-05-22T04:45:13;95816.69;;;15.02;57.99
60874;BME280;46715;40.642;-7.920;2023-05-22T04:47:14;95820.38;;;14.92;58.39
60874;BME280;46715;40.642;-7.920;2023-05-22T04:49:15;95823.16;;;14.95;58.76
60874;BME280;46715;40.642;-7.920;2023-05-22T04:51:16;95822.53;;;14.98;58.36
60874;BME280;46715;40.642;-7.920;2023-05-22T04:53:17;95825.16;;;14.90;59.11
60874;BME280;46715;40.642;-7.920;2023-05-22T04:55:18;95821.59;;;14.86;59.20
60874;BME280;46715;40.642;-7.920;2023-05-22T04:57:20;95822.50;;;14.81;59.59
60874;BME280;46715;40.642;-7.920;2023-05-22T04:59:21;95822.50;;;14.81;59.56
60874;BME280;46715;40.642;-7.920;2023-05-22T05:01:22;95823.09;;;14.69;60.12
60874;BME280;46715;40.642;-7.920;2023-05-22T05:03:24;95824.16;;;14.68;60.49
60874;BME280;46715;40.642;-7.920;2023-05-22T05:05:25;95827.69;;;14.63;60.54
60874;BME280;46715;40.642;-7.920;2023-05-22T05:07:27;95826.91;;;14.63;60.88
60874;BME280;46715;40.642;-7.920;2023-05-22T05:09:28;95822.16;;;14.65;60.69
60874;BME280;46715;40.642;-7.920;2023-05-22T05:11:29;95833.34;;;14.57;61.51
60874;BME280;46715;40.642;-7.920;2023-05-22T05:13:31;95832.94;;;14.63;61.38
60874;BME280;46715;40.642;-7.920;2023-05-22T05:15:33;95831.19;;;14.59;61.64
60874;BME280;46715;40.642;-7.920;2023-05-22T05:17:36;95836.72;;;14.57;61.99
60874;BME280;46715;40.642;-7.920;2023-05-22T05:19:38;95843.34;;;14.55;61.88
60874;BME280;46715;40.642;-7.920;2023-05-22T05:21:38;95844.31;;;14.59;62.08
60874;BME280;46715;40.642;-7.920;2023-05-22T05:23:40;95844.22;;;14.64;62.15
60874;BME280;46715;40.642;-7.920;2023-05-22T05:25:40;95842.41;;;14.73;62.38
60874;BME280;46715;40.642;-7.920;2023-05-22T05:27:41;95839.53;;;14.92;61.74
60874;BME280;46715;40.642;-7.920;2023-05-22T05:29:43;95841.38;;;14.92;61.86
60874;BME280;46715;40.642;-7.920;2023-05-22T05:31:52;95840.91;;;14.90;62.10
60874;BME280;46715;40.642;-7.920;2023-05-22T05:34:13;95841.22;;;14.88;62.34
60874;BME280;46715;40.642;-7.920;2023-05-22T05:36:35;95844.28;;;14.90;62.33
60874;BME280;46715;40.642;-7.920;2023-05-22T05:38:36;95844.47;;;14.94;62.68
60874;BME280;46715;40.642;-7.920;2023-05-22T05:40:37;95848.97;;;15.02;62.13
60874;BME280;46715;40.642;-7.920;2023-05-22T05:42:40;95853.28;;;14.98;63.00
60874;BME280;46715;40.642;-7.920;2023-05-22T05:44:43;95850.19;;;15.05;62.71
60874;BME280;46715;40.642;-7.920;2023-05-22T05:46:45;95849.00;;;15.11;62.81
60874;BME280;46715;40.642;-7.920;2023-05-22T05:48:49;95853.94;;;15.21;62.51
60874;BME280;46715;40.642;-7.920;2023-05-22T05:50:49;95856.59;;;15.30;62.31
60874;BME280;46715;40.642;-7.920;2023-05-22T05:52:50;95862.16;;;15.28;62.56
60874;BME280;46715;40.642;-7.920;2023-05-22T05:54:53;95853.22;;;15.38;61.93
60874;BME280;46715;40.642;-7.920;2023-05-22T05:56:55;95853.03;;;15.43;61.88
60874;BME280;46715;40.642;-7.920;2023-05-22T05:58:56;95848.28;;;15.54;61.90
60874;BME280;46715;40.642;-7.920;2023-05-22T06:01:12;95866.22;;;15.52;61.83
60874;BME280;46715;40.642;-7.920;2023-05-22T06:03:13;95855.38;;;15.54;61.76
60874;BME280;46715;40.642;-7.920;2023-05-22T06:05:26;95860.47;;;15.50;61.92
60874;BME280;46715;40.642;-7.920;2023-05-22T06:07:36;95865.41;;;15.51;62.20
60874;BME280;46715;40.642;-7.920;2023-05-22T06:09:42;95870.22;;;15.58;61.88
60874;BME280;46715;40.642;-7.920;2023-05-22T06:11:52;95867.28;;;15.60;61.88
60874;BME280;46715;40.642;-7.920;2023-05-22T06:13:54;95869.78;;;15.56;62.12
60874;BME280;46715;40.642;-7.920;2023-05-22T06:15:55;95863.91;;;15.59;62.05
60874;BME280;46715;40.642;-7.920;2023-05-22T06:17:57;95875.66;;;15.62;62.06
60874;BME280;46715;40.642;-7.920;2023-05-22T06:19:58;95871.94;;;15.72;61.83
60874;BME280;46715;40.642;-7.920;2023-05-22T06:21:59;95878.78;;;15.81;61.46
60874;BME280;46715;40.642;-7.920;2023-05-22T06:23:59;95875.50;;;15.84;61.60
60874;BME280;46715;40.642;-7.920;2023-05-22T06:26:01;95876.75;;;15.87;61.52
60874;BME280;46715;40.642;-7.920;2023-05-22T06:28:02;95879.38;;;15.96;61.27
60874;BME280;46715;40.642;-7.920;2023-05-22T06:30:04;95878.13;;;16.11;60.78
60874;BME280;46715;40.642;-7.920;2023-05-22T06:32:09;95881.53;;;16.20;60.26
60874;BME280;46715;40.642;-7.920;2023-05-22T06:34:12;95887.09;;;16.10;60.88
60874;BME280;46715;40.642;-7.920;2023-05-22T06:36:13;95877.94;;;16.25;60.35
60874;BME280;46715;40.642;-7.920;2023-05-22T06:38:14;95884.59;;;16.40;60.06
60874;BME280;46715;40.642;-7.920;2023-05-22T06:40:17;95879.25;;;16.57;59.88
60874;BME280;46715;40.642;-7.920;2023-05-22T06:42:22;95888.53;;;16.63;59.35
60874;BME280;46715;40.642;-7.920;2023-05-22T06:44:41;95885.66;;;16.86;58.53
60874;BME280;46715;40.642;-7.920;2023-05-22T06:46:42;95888.28;;;16.95;58.37
60874;BME280;46715;40.642;-7.920;2023-05-22T06:48:50;95899.13;;;17.02;58.43
60874;BME280;46715;40.642;-7.920;2023-05-22T06:50:56;95895.47;;;17.15;57.94
60874;BME280;46715;40.642;-7.920;2023-05-22T06:52:58;95905.13;;;17.32;58.22
60874;BME280;46715;40.642;-7.920;2023-05-22T06:55:00;95896.56;;;17.44;57.37
60874;BME280;46715;40.642;-7.920;2023-05-22T06:57:05;95905.69;;;17.68;56.95
60874;BME280;46715;40.642;-7.920;2023-05-22T06:59:09;95903.56;;;17.91;56.43
60874;BME280;46715;40.642;-7.920;2023-05-22T07:03:59;95908.13;;;19.07;53.30
60874;BME280;46715;40.642;-7.920;2023-05-22T07:06:07;95906.66;;;19.84;52.33
60874;BME280;46715;40.642;-7.920;2023-05-22T07:08:08;95906.78;;;20.32;50.66
60874;BME280;46715;40.642;-7.920;2023-05-22T07:10:10;95907.44;;;21.21;48.42
60874;BME280;46715;40.642;-7.920;2023-05-22T07:12:11;95905.38;;;21.82;46.50
60874;BME280;46715;40.642;-7.920;2023-05-22T07:14:16;95903.31;;;22.14;44.89
60874;BME280;46715;40.642;-7.920;2023-05-22T07:16:19;95905.91;;;22.30;44.79
60874;BME280;46715;40.642;-7.920;2023-05-22T07:18:20;95896.75;;;22.70;43.38
60874;BME280;46715;40.642;-7.920;2023-05-22T07:20:21;95896.22;;;23.07;43.28
60874;BME280;46715;40.642;-7.920;2023-05-22T07:22:42;95898.16;;;23.34;42.55
60874;BME280;46715;40.642;-7.920;2023-05-22T07:24:44;95897.16;;;23.19;42.63
60874;BME280;46715;40.642;-7.920;2023-05-22T07:26:47;95896.88;;;23.24;42.51
60874;BME280;46715;40.642;-7.920;2023-05-22T07:28:50;95902.47;;;22.95;42.96
60874;BME280;46715;40.642;-7.920;2023-05-22T07:30:51;95898.53;;;22.62;44.00
60874;BME280;46715;40.642;-7.920;2023-05-22T07:32:52;95911.47;;;22.02;45.14
60874;BME280;46715;40.642;-7.920;2023-05-22T07:34:54;95902.91;;;21.37;46.40
60874;BME280;46715;40.642;-7.920;2023-05-22T07:36:55;95907.91;;;21.07;47.01
60874;BME280;46715;40.642;-7.920;2023-05-22T07:38:56;95900.44;;;21.12;47.25
60874;BME280;46715;40.642;-7.920;2023-05-22T07:40:57;95902.97;;;21.41;46.44
60874;BME280;46715;40.642;-7.920;2023-05-22T07:42:59;95909.63;;;21.86;45.75
60874;BME280;46715;40.642;-7.920;2023-05-22T07:45:01;95905.22;;;22.13;45.26
60874;BME280;46715;40.642;-7.920;2023-05-22T07:47:02;95908.38;;;22.19;44.79
60874;BME280;46715;40.642;-7.920;2023-05-22T07:49:04;95904.66;;;21.85;44.85
60874;BME280;46715;40.642;-7.920;2023-05-22T07:51:05;95910.22;;;21.60;45.72
60874;BME280;46715;40.642;-7.920;2023-05-22T07:53:08;95910.28;;;21.99;45.24
60874;BME280;46715;40.642;-7.920;2023-05-22T07:55:13;95911.38;;;22.37;44.22
60874;BME280;46715;40.642;-7.920;2023-05-22T07:57:15;95912.66;;;22.67;43.79
60874;BME280;46715;40.642;-7.920;2023-05-22T07:59:18;95927.91;;;22.50;43.85
60874;BME280;46715;40.642;-7.920;2023-05-22T08:01:21;95906.75;;;22.77;43.44
60874;BME280;46715;40.642;-7.920;2023-05-22T08:03:22;95919.09;;;22.89;42.93
60874;BME280;46715;40.642;-7.920;2023-05-22T08:05:23;95909.56;;;22.02;43.83
60874;BME280;46715;40.642;-7.920;2023-05-22T08:07:23;95908.75;;;21.62;45.93
60874;BME280;46715;40.642;-7.920;2023-05-22T08:09:24;95913.66;;;21.44;46.04
60874;BME280;46715;40.642;-7.920;2023-05-22T08:11:25;95909.91;;;22.20;44.10
60874;BME280;46715;40.642;-7.920;2023-05-22T08:13:26;95916.25;;;23.01;42.52
60874;BME280;46715;40.642;-7.920;2023-05-22T08:15:27;95907.66;;;23.61;41.62
60874;BME280;46715;40.642;-7.920;2023-05-22T08:17:28;95909.00;;;23.78;40.81
60874;BME280;46715;40.642;-7.920;2023-05-22T08:19:29;95905.88;;;23.73;41.29
60874;BME280;46715;40.642;-7.920;2023-05-22T08:21:31;95910.19;;;23.04;42.68
60874;BME280;46715;40.642;-7.920;2023-05-22T08:23:36;95910.69;;;23.63;41.29
60874;BME280;46715;40.642;-7.920;2023-05-22T08:25:38;95902.19;;;24.11;40.75
60874;BME280;46715;40.642;-7.920;2023-05-22T08:27:39;95908.38;;;25.01;38.94
60874;BME280;46715;40.642;-7.920;2023-05-22T08:29:40;95903.56;;;25.88;38.35
60874;BME280;46715;40.642;-7.920;2023-05-22T08:31:41;95892.69;;;26.69;35.57
60874;BME280;46715;40.642;-7.920;2023-05-22T08:33:42;95897.72;;;26.85;35.40
60874;BME280;46715;40.642;-7.920;2023-05-22T08:35:46;95890.78;;;27.42;35.03
60874;BME280;46715;40.642;-7.920;2023-05-22T08:37:46;95896.72;;;28.07;34.37
60874;BME280;46715;40.642;-7.920;2023-05-22T08:39:50;95893.59;;;28.16;33.31
60874;BME280;46715;40.642;-7.920;2023-05-22T08:41:51;95901.47;;;28.45;32.18
60874;BME280;46715;40.642;-7.920;2023-05-22T08:43:52;95894.78;;;28.11;32.53
60874;BME280;46715;40.642;-7.920;2023-05-22T08:46:02;95899.22;;;27.15;33.67
60874;BME280;46715;40.642;-7.920;2023-05-22T08:48:04;95906.50;;;26.85;34.37
60874;BME280;46715;40.642;-7.920;2023-05-22T08:50:06;95905.28;;;26.58;34.70
60874;BME280;46715;40.642;-7.920;2023-05-22T08:52:25;95908.91;;;25.92;36.03
60874;BME280;46715;40.642;-7.920;2023-05-22T08:54:29;95906.31;;;26.02;35.45
60874;BME280;46715;40.642;-7.920;2023-05-22T08:56:32;95906.47;;;25.58;36.91
60874;BME280;46715;40.642;-7.920;2023-05-22T08:58:35;95899.66;;;25.67;36.17
60874;BME280;46715;40.642;-7.920;2023-05-22T09:00:36;95910.28;;;25.57;36.29
60874;BME280;46715;40.642;-7.920;2023-05-22T09:02:37;95899.34;;;25.21;37.30
60874;BME280;46715;40.642;-7.920;2023-05-22T09:04:42;95896.16;;;24.56;38.29
60874;BME280;46715;40.642;-7.920;2023-05-22T09:06:46;95893.78;;;24.09;39.74
60874;BME280;46715;40.642;-7.920;2023-05-22T09:08:47;95892.38;;;23.58;40.42
60874;BME280;46715;40.642;-7.920;2023-05-22T09:10:48;95895.56;;;23.14;41.03
60874;BME280;46715;40.642;-7.920;2023-05-22T09:13:06;95889.47;;;22.90;41.66
60874;BME280;46715;40.642;-7.920;2023-05-22T09:15:14;95888.72;;;22.90;41.74
60874;BME280;46715;40.642;-7.920;2023-05-22T09:17:16;95884.28;;;22.51;42.95
60874;BME280;46715;40.642;-7.920;2023-05-22T09:19:17;95883.81;;;22.92;42.35
60874;BME280;46715;40.642;-7.920;2023-05-22T09:21:19;95889.28;;;23.03;42.12
60874;BME280;46715;40.642;-7.920;2023-05-22T09:23:21;95884.47;;;23.35;41.42
60874;BME280;46715;40.642;-7.920;2023-05-22T09:25:26;95880.44;;;23.45;41.44
60874;BME280;46715;40.642;-7.920;2023-05-22T09:27:27;95877.00;;;23.44;41.06
60874;BME280;46715;40.642;-7.920;2023-05-22T09:29:27;95881.50;;;23.13;41.99
60874;BME280;46715;40.642;-7.920;2023-05-22T09:31:28;95884.91;;;23.98;41.11
60874;BME280;46715;40.642;-7.920;2023-05-22T09:33:29;95884.72;;;25.00;38.82
60874;BME280;46715;40.642;-7.920;2023-05-22T09:35:30;95880.03;;;26.15;36.36
60874;BME280;46715;40.642;-7.920;2023-05-22T09:37:33;95874.38;;;27.03;35.40
60874;BME280;46715;40.642;-7.920;2023-05-22T09:39:38;95865.31;;;28.04;33.12
60874;BME280;46715;40.642;-7.920;2023-05-22T09:41:44;95880.34;;;27.76;33.30
60874;BME280;46715;40.642;-7.920;2023-05-22T09:43:49;95870.47;;;28.40;33.17
60874;BME280;46715;40.642;-7.920;2023-05-22T09:45:59;95872.84;;;28.31;33.14
60874;BME280;46715;40.642;-7.920;2023-05-22T09:48:02;95874.47;;;28.73;31.95
60874;BME280;46715;40.642;-7.920;2023-05-22T09:50:06;95873.59;;;28.28;32.57
60874;BME280;46715;40.642;-7.920;2023-05-22T09:52:10;95883.66;;;28.09;33.07
60874;BME280;46715;40.642;-7.920;2023-05-22T09:54:13;95880.47;;;27.47;33.87
60874;BME280;46715;40.642;-7.920;2023-05-22T09:56:15;95872.25;;;27.90;33.27
60874;BME280;46715;40.642;-7.920;2023-05-22T09:58:18;95875.16;;;28.85;31.70
60874;BME280;46715;40.642;-7.920;2023-05-22T10:00:19;95879.47;;;28.71;31.09
60874;BME280;46715;40.642;-7.920;2023-05-22T10:02:26;95877.25;;;29.08;31.09
60874;BME280;46715;40.642;-7.920;2023-05-22T10:04:30;95868.28;;;29.22;30.56
60874;BME280;46715;40.642;-7.920;2023-05-22T10:06:34;95864.69;;;28.98;30.91
60874;BME280;46715;40.642;-7.920;2023-05-22T10:08:42;95874.84;;;29.21;31.46
60874;BME280;46715;40.642;-7.920;2023-05-22T10:10:48;95870.78;;;29.78;30.39
60874;BME280;46715;40.642;-7.920;2023-05-22T10:13:01;95869.97;;;30.12;30.14
60874;BME280;46715;40.642;-7.920;2023-05-22T10:15:04;95863.06;;;29.80;29.38
60874;BME280;46715;40.642;-7.920;2023-05-22T10:17:08;95873.81;;;30.42;29.57
60874;BME280;46715;40.642;-7.920;2023-05-22T10:19:12;95860.97;;;31.01;27.57
60874;BME280;46715;40.642;-7.920;2023-05-22T10:21:14;95854.09;;;31.43;28.13
60874;BME280;46715;40.642;-7.920;2023-05-22T10:23:16;95864.03;;;31.26;27.27
60874;BME280;46715;40.642;-7.920;2023-05-22T10:25:17;95857.56;;;31.64;26.91
60874;BME280;46715;40.642;-7.920;2023-05-22T10:27:18;95858.59;;;31.50;27.03
60874;BME280;46715;40.642;-7.920;2023-05-22T10:29:52;95854.69;;;31.91;26.25
60874;BME280;46715;40.642;-7.920;2023-05-22T10:32:11;95847.38;;;32.45;25.79
60874;BME280;46715;40.642;-7.920;2023-05-22T10:34:41;95844.09;;;32.87;25.19
60874;BME280;46715;40.642;-7.920;2023-05-22T10:37:07;95845.69;;;32.84;25.39
60874;BME280;46715;40.642;-7.920;2023-05-22T10:41:43;95845.59;;;30.77;27.90
60874;BME280;46715;40.642;-7.920;2023-05-22T10:43:48;95843.47;;;31.76;26.66
60874;BME280;46715;40.642;-7.920;2023-05-22T10:46:03;95848.88;;;30.38;27.96
60874;BME280;46715;40.642;-7.920;2023-05-22T10:48:10;95854.19;;;30.69;28.36
60874;BME280;46715;40.642;-7.920;2023-05-22T10:50:13;95848.84;;;31.36;27.00
60874;BME280;46715;40.642;-7.920;2023-05-22T10:52:16;95845.31;;;31.39;26.68
60874;BME280;46715;40.642;-7.920;2023-05-22T10:54:41;95849.41;;;31.04;27.77
60874;BME280;46715;40.642;-7.920;2023-05-22T10:56:43;95845.50;;;30.85;27.35
60874;BME280;46715;40.642;-7.920;2023-05-22T10:58:55;95846.19;;;31.33;27.45
60874;BME280;46715;40.642;-7.920;2023-05-22T11:01:19;95843.25;;;30.80;27.74
60874;BME280;46715;40.642;-7.920;2023-05-22T11:03:26;95849.91;;;30.48;28.24
60874;BME280;46715;40.642;-7.920;2023-05-22T11:05:36;95846.13;;;30.45;28.63
60874;BME280;46715;40.642;-7.920;2023-05-22T11:07:40;95839.81;;;30.79;27.72